sensor_id;sensor_type;location;lat;lon;timestamp;P1;durP1;ratioP1;P2;durP2;ratioP2
13218;SDS011;6674;49.152;11.918;2024-03-23T00:53:51;21.87;;;19.73;;
13218;SDS011;6674;49.152;11.918;2024-03-23T00:56:16;21.60;;;19.40;;
13218;SDS011;6674;49.152;11.918;2024-03-23T00:58:43;22.83;;;20.23;;
13218;SDS011;6674;49.152;11.918;2024-03-23T01:01:08;20.27;;;18.20;;
13218;SDS011;6674;49.152;11.918;2024-03-23T01:03:36;19.27;;;17.37;;
13218;SDS011;6674;49.152;11.918;2024-03-23T01:06:01;22.27;;;20.07;;
13218;SDS011;6674;49.152;11.918;2024-03-23T01:08:28;19.53;;;17.63;;
13218;SDS011;6674;49.152;11.918;2024-03-23T01:10:56;22.83;;;20.53;;
13218;SDS011;6674;49.152;11.918;2024-03-23T01:13:22;21.93;;;19.63;;
13218;SDS011;6674;49.152;11.918;2024-03-23T01:15:48;22.60;;;20.40;;
13218;SDS011;6674;49.152;11.918;2024-03-23T01:18:16;22.10;;;19.77;;
13218;SDS011;6674;49.152;11.918;2024-03-23T01:20:41;22.53;;;20.13;;
13218;SDS011;6674;49.152;11.918;2024-03-23T01:23:08;23.53;;;21.10;;
13218;SDS011;6674;49.152;11.918;2024-03-23T01:25:33;21.93;;;19.73;;
13218;SDS011;6674;49.152;11.918;2024-03-23T01:28:01;22.20;;;19.83;;
13218;SDS011;6674;49.152;11.918;2024-03-23T01:30:26;21.47;;;19.27;;
13218;SDS011;6674;49.152;11.918;2024-03-23T01:32:53;22.07;;;19.63;;
13218;SDS011;6674;49.152;11.918;2024-03-23T01:35:18;22.50;;;20.20;;
13218;SDS011;6674;49.152;11.918;2024-03-23T01:37:45;21.97;;;19.67;;
13218;SDS011;6674;49.152;11.918;2024-03-23T01:40:11;20.17;;;18.13;;
13218;SDS011;6674;49.152;11.918;2024-03-23T01:42:38;19.40;;;17.23;;
13218;SDS011;6674;49.152;11.918;2024-03-23T01:45:05;20.87;;;18.60;;
13218;SDS011;6674;49.152;11.918;2024-03-23T01:47:33;24.03;;;21.43;;
13218;SDS011;6674;49.152;11.918;2024-03-23T01:49:59;22.43;;;20.07;;
13218;SDS011;6674;49.152;11.918;2024-03-23T01:52:25;20.27;;;18.17;;
13218;SDS011;6674;49.152;11.918;2024-03-23T01:54:52;22.20;;;19.90;;
13218;SDS011;6674;49.152;11.918;2024-03-23T01:57:18;21.57;;;19.37;;
13218;SDS011;6674;49.152;11.918;2024-03-23T01:59:45;22.57;;;20.17;;
13218;SDS011;6674;49.152;11.918;2024-03-23T02:02:13;22.73;;;20.33;;
13218;SDS011;6674;49.152;11.918;2024-03-23T02:04:39;22.53;;;20.23;;
13218;SDS011;6674;49.152;11.918;2024-03-23T02:07:05;21.23;;;19.13;;
13218;SDS011;6674;49.152;11.918;2024-03-23T02:09:31;20.17;;;17.97;;
13218;SDS011;6674;49.152;11.918;2024-03-23T02:11:58;19.93;;;17.83;;
13218;SDS011;6674;49.152;11.918;2024-03-23T02:14:23;20.73;;;18.53;;
13218;SDS011;6674;49.152;11.918;2024-03-23T02:16:50;18.83;;;16.90;;
13218;SDS011;6674;49.152;11.918;2024-03-23T02:19:17;17.40;;;15.67;;
13218;SDS011;6674;49.152;11.918;2024-03-23T02:21:43;17.30;;;15.03;;
13218;SDS011;6674;49.152;11.918;2024-03-23T02:24:10;15.57;;;13.90;;
13218;SDS011;6674;49.152;11.918;2024-03-23T02:26:36;14.83;;;13.43;;
13218;SDS011;6674;49.152;11.918;2024-03-23T02:29:02;14.93;;;13.43;;
13218;SDS011;6674;49.152;11.918;2024-03-23T02:31:28;13.23;;;11.93;;
13218;SDS011;6674;49.152;11.918;2024-03-23T02:33:53;13.00;;;11.70;;
13218;SDS011;6674;49.152;11.918;2024-03-23T02:36:20;13.77;;;12.37;;
13218;SDS011;6674;49.152;11.918;2024-03-23T02:38:46;12.90;;;11.60;;
13218;SDS011;6674;49.152;11.918;2024-03-23T02:41:14;14.17;;;12.67;;
13218;SDS011;6674;49.152;11.918;2024-03-23T02:43:39;13.23;;;11.83;;
13218;SDS011;6674;49.152;11.918;2024-03-23T02:46:06;12.13;;;10.93;;
13218;SDS011;6674;49.152;11.918;2024-03-23T02:48:31;12.93;;;11.63;;
13218;SDS011;6674;49.152;11.918;2024-03-23T02:50:58;11.83;;;10.73;;
13218;SDS011;6674;49.152;11.918;2024-03-23T02:53:23;13.77;;;12.40;;
13218;SDS011;6674;49.152;11.918;2024-03-23T02:55:50;10.83;;;9.77;;
13218;SDS011;6674;49.152;11.918;2024-03-23T02:58:17;10.30;;;9.37;;
13218;SDS011;6674;49.152;11.918;2024-03-23T03:00:43;11.00;;;10.00;;
13218;SDS011;6674;49.152;11.918;2024-03-23T03:03:09;13.27;;;11.97;;
13218;SDS011;6674;49.152;11.918;2024-03-23T03:05:35;13.73;;;12.43;;
13218;SDS011;6674;49.152;11.918;2024-03-23T03:08:00;13.53;;;12.27;;
13218;SDS011;6674;49.152;11.918;2024-03-23T03:10:27;13.40;;;12.00;;
13218;SDS011;6674;49.152;11.918;2024-03-23T03:12:53;12.33;;;11.03;;
13218;SDS011;6674;49.152;11.918;2024-03-23T03:15:21;12.10;;;10.90;;
13218;SDS011;6674;49.152;11.918;2024-03-23T03:17:47;11.27;;;10.27;;
13218;SDS011;6674;49.152;11.918;2024-03-23T03:20:13;11.40;;;10.30;;
13218;SDS011;6674;49.152;11.918;2024-03-23T03:22:40;11.67;;;10.63;;
13218;SDS011;6674;49.152;11.918;2024-03-23T03:25:07;11.53;;;10.43;;
13218;SDS011;6674;49.152;11.918;2024-03-23T03:27:32;11.87;;;10.77;;
13218;SDS011;6674;49.152;11.918;2024-03-23T03:29:59;12.10;;;10.90;;
13218;SDS011;6674;49.152;11.918;2024-03-23T03:32:27;11.83;;;10.60;;
13218;SDS011;6674;49.152;11.918;2024-03-23T03:34:54;11.83;;;10.70;;
13218;SDS011;6674;49.152;11.918;2024-03-23T03:37:19;11.20;;;10.10;;
13218;SDS011;6674;49.152;11.918;2024-03-23T03:39:46;11.47;;;10.37;;
13218;SDS011;6674;49.152;11.918;2024-03-23T03:42:11;10.33;;;9.43;;
13218;SDS011;6674;49.152;11.918;2024-03-23T03:44:37;9.63;;;8.83;;
13218;SDS011;6674;49.152;11.918;2024-03-23T03:47:03;10.60;;;9.70;;
13218;SDS011;6674;49.152;11.918;2024-03-23T03:49:31;10.13;;;9.13;;
13218;SDS011;6674;49.152;11.918;2024-03-23T03:51:57;9.70;;;8.77;;
13218;SDS011;6674;49.152;11.918;2024-03-23T03:54:24;10.83;;;9.73;;
13218;SDS011;6674;49.152;11.918;2024-03-23T03:56:49;9.83;;;8.93;;
13218;SDS011;6674;49.152;11.918;2024-03-23T03:59:17;9.10;;;8.30;;
13218;SDS011;6674;49.152;11.918;2024-03-23T04:01:43;8.87;;;8.07;;
13218;SDS011;6674;49.152;11.918;2024-03-23T04:04:09;8.90;;;8.00;;
13218;SDS011;6674;49.152;11.918;2024-03-23T04:06:36;7.97;;;7.17;;
13218;SDS011;6674;49.152;11.918;2024-03-23T04:09:03;7.80;;;7.10;;
13218;SDS011;6674;49.152;11.918;2024-03-23T04:11:28;7.80;;;7.07;;
13218;SDS011;6674;49.152;11.918;2024-03-23T04:13:55;7.87;;;7.17;;
13218;SDS011;6674;49.152;11.918;2024-03-23T04:16:27;7.77;;;6.83;;
13218;SDS011;6674;49.152;11.918;2024-03-23T04:18:53;7.50;;;6.10;;
13218;SDS011;6674;49.152;11.918;2024-03-23T04:21:19;6.87;;;6.27;;
13218;SDS011;6674;49.152;11.918;2024-03-23T04:23:47;6.97;;;6.37;;
13218;SDS011;6674;49.152;11.918;2024-03-23T04:26:12;6.73;;;6.03;;
13218;SDS011;6674;49.152;11.918;2024-03-23T04:28:39;6.37;;;5.77;;
13218;SDS011;6674;49.152;11.918;2024-03-23T04:31:04;6.47;;;5.83;;
13218;SDS011;6674;49.152;11.918;2024-03-23T04:33:31;6.80;;;6.07;;
13218;SDS011;6674;49.152;11.918;2024-03-23T04:35:56;6.70;;;6.10;;
13218;SDS011;6674;49.152;11.918;2024-03-23T04:38:24;6.40;;;5.80;;
13218;SDS011;6674;49.152;11.918;2024-03-23T04:40:55;6.30;;;5.80;;
13218;SDS011;6674;49.152;11.918;2024-03-23T04:43:21;5.63;;;5.13;;
13218;SDS011;6674;49.152;11.918;2024-03-23T04:45:47;6.13;;;5.47;;
13218;SDS011;6674;49.152;11.918;2024-03-23T04:48:14;5.80;;;5.30;;
13218;SDS011;6674;49.152;11.918;2024-03-23T04:50:39;6.10;;;5.50;;
13218;SDS011;6674;49.152;11.918;2024-03-23T04:53:07;5.77;;;5.27;;
13218;SDS011;6674;49.152;11.918;2024-03-23T04:55:34;6.53;;;5.57;;
13218;SDS011;6674;49.152;11.918;2024-03-23T04:58:02;5.70;;;5.20;;
13218;SDS011;6674;49.152;11.918;2024-03-23T05:00:28;5.43;;;4.97;;
13218;SDS011;6674;49.152;11.918;2024-03-23T05:02:56;6.90;;;5.13;;
13218;SDS011;6674;49.152;11.918;2024-03-23T05:05:23;5.47;;;5.07;;
13218;SDS011;6674;49.152;11.918;2024-03-23T05:07:48;5.10;;;4.60;;
13218;SDS011;6674;49.152;11.918;2024-03-23T05:10:15;6.20;;;5.37;;
13218;SDS011;6674;49.152;11.918;2024-03-23T05:12:40;5.27;;;4.77;;
13218;SDS011;6674;49.152;11.918;2024-03-23T05:15:08;5.13;;;4.63;;
13218;SDS011;6674;49.152;11.918;2024-03-23T05:17:34;5.10;;;4.60;;
13218;SDS011;6674;49.152;11.918;2024-03-23T05:20:02;5.00;;;4.60;;
13218;SDS011;6674;49.152;11.918;2024-03-23T05:22:28;5.60;;;4.80;;
13218;SDS011;6674;49.152;11.918;2024-03-23T05:24:55;4.87;;;4.47;;
13218;SDS011;6674;49.152;11.918;2024-03-23T05:27:21;4.93;;;4.53;;
13218;SDS011;6674;49.152;11.918;2024-03-23T05:29:48;5.40;;;4.43;;
13218;SDS011;6674;49.152;11.918;2024-03-23T05:32:15;4.87;;;4.47;;
13218;SDS011;6674;49.152;11.918;2024-03-23T05:34:41;4.40;;;4.00;;
13218;SDS011;6674;49.152;11.918;2024-03-23T05:37:06;4.50;;;4.10;;
13218;SDS011;6674;49.152;11.918;2024-03-23T05:39:33;5.47;;;3.83;;
13218;SDS011;6674;49.152;11.918;2024-03-23T05:41:59;5.40;;;4.30;;
13218;SDS011;6674;49.152;11.918;2024-03-23T05:44:26;4.50;;;4.10;;
13218;SDS011;6674;49.152;11.918;2024-03-23T05:46:51;4.73;;;4.00;;
13218;SDS011;6674;49.152;11.918;2024-03-23T05:49:19;4.27;;;3.97;;
13218;SDS011;6674;49.152;11.918;2024-03-23T05:51:46;5.00;;;4.10;;
13218;SDS011;6674;49.152;11.918;2024-03-23T05:54:12;4.87;;;4.10;;
13218;SDS011;6674;49.152;11.918;2024-03-23T05:56:38;4.50;;;4.10;;
13218;SDS011;6674;49.152;11.918;2024-03-23T05:59:04;4.77;;;3.60;;
13218;SDS011;6674;49.152;11.918;2024-03-23T06:01:29;4.20;;;3.80;;
13218;SDS011;6674;49.152;11.918;2024-03-23T06:03:57;4.47;;;3.83;;
13218;SDS011;6674;49.152;11.918;2024-03-23T06:06:24;4.10;;;3.70;;
13218;SDS011;6674;49.152;11.918;2024-03-23T06:08:51;5.50;;;4.47;;
13218;SDS011;6674;49.152;11.918;2024-03-23T06:11:16;4.00;;;3.60;;
13218;SDS011;6674;49.152;11.918;2024-03-23T06:13:43;4.53;;;4.13;;
13218;SDS011;6674;49.152;11.918;2024-03-23T06:16:08;4.30;;;3.90;;
13218;SDS011;6674;49.152;11.918;2024-03-23T06:18:35;5.03;;;3.63;;
13218;SDS011;6674;49.152;11.918;2024-03-23T06:21:00;5.37;;;3.70;;
13218;SDS011;6674;49.152;11.918;2024-03-23T06:23:28;3.67;;;3.40;;
13218;SDS011;6674;49.152;11.918;2024-03-23T06:25:54;4.17;;;3.87;;
13218;SDS011;6674;49.152;11.918;2024-03-23T06:28:20;4.43;;;3.60;;
13218;SDS011;6674;49.152;11.918;2024-03-23T06:30:46;3.83;;;3.53;;
13218;SDS011;6674;49.152;11.918;2024-03-23T06:33:13;4.13;;;3.73;;
13218;SDS011;6674;49.152;11.918;2024-03-23T06:35:38;4.40;;;4.00;;
13218;SDS011;6674;49.152;11.918;2024-03-23T06:38:04;3.73;;;3.43;;
13218;SDS011;6674;49.152;11.918;2024-03-23T06:40:31;4.07;;;3.77;;
13218;SDS011;6674;49.152;11.918;2024-03-23T06:42:58;3.80;;;3.37;;
13218;SDS011;6674;49.152;11.918;2024-03-23T06:45:23;4.20;;;3.80;;
13218;SDS011;6674;49.152;11.918;2024-03-23T06:47:49;3.77;;;3.47;;
13218;SDS011;6674;49.152;11.918;2024-03-23T06:50:15;4.47;;;3.40;;
13218;SDS011;6674;49.152;11.918;2024-03-23T06:52:43;5.13;;;3.43;;
13218;SDS011;6674;49.152;11.918;2024-03-23T06:55:08;4.10;;;3.73;;
13218;SDS011;6674;49.152;11.918;2024-03-23T06:57:36;3.63;;;3.40;;
13218;SDS011;6674;49.152;11.918;2024-03-23T07:00:01;3.77;;;3.47;;
13218;SDS011;6674;49.152;11.918;2024-03-23T07:02:30;3.80;;;3.50;;
13218;SDS011;6674;49.152;11.918;2024-03-23T07:04:55;4.07;;;3.67;;
13218;SDS011;6674;49.152;11.918;2024-03-23T07:07:22;4.40;;;3.37;;
13218;SDS011;6674;49.152;11.918;2024-03-23T07:09:47;4.43;;;3.60;;
13218;SDS011;6674;49.152;11.918;2024-03-23T07:12:14;8.33;;;5.90;;
13218;SDS011;6674;49.152;11.918;2024-03-23T07:14:40;3.53;;;3.23;;
13218;SDS011;6674;49.152;11.918;2024-03-23T07:17:08;4.50;;;3.40;;
13218;SDS011;6674;49.152;11.918;2024-03-23T07:19:33;4.07;;;3.73;;
13218;SDS011;6674;49.152;11.918;2024-03-23T07:22:00;3.87;;;3.53;;
13218;SDS011;6674;49.152;11.918;2024-03-23T07:24:26;4.77;;;3.60;;
13218;SDS011;6674;49.152;11.918;2024-03-23T07:26:53;4.40;;;3.97;;
13218;SDS011;6674;49.152;11.918;2024-03-23T07:29:19;6.70;;;6.00;;
13218;SDS011;6674;49.152;11.918;2024-03-23T07:31:47;7.03;;;6.43;;
13218;SDS011;6674;49.152;11.918;2024-03-23T07:34:12;6.97;;;6.37;;
13218;SDS011;6674;49.152;11.918;2024-03-23T07:36:39;7.77;;;7.07;;
13218;SDS011;6674;49.152;11.918;2024-03-23T07:39:05;7.30;;;6.70;;
13218;SDS011;6674;49.152;11.918;2024-03-23T07:41:33;8.43;;;7.53;;
13218;SDS011;6674;49.152;11.918;2024-03-23T07:43:58;7.73;;;7.03;;
13218;SDS011;6674;49.152;11.918;2024-03-23T07:46:25;7.67;;;6.27;;
13218;SDS011;6674;49.152;11.918;2024-03-23T07:48:52;7.10;;;6.50;;
13218;SDS011;6674;49.152;11.918;2024-03-23T07:51:19;5.87;;;5.37;;
13218;SDS011;6674;49.152;11.918;2024-03-23T07:53:45;6.00;;;5.47;;
13218;SDS011;6674;49.152;11.918;2024-03-23T07:56:13;5.50;;;5.00;;
13218;SDS011;6674;49.152;11.918;2024-03-23T07:58:40;6.87;;;5.10;;
13218;SDS011;6674;49.152;11.918;2024-03-23T08:01:07;5.10;;;4.70;;
13218;SDS011;6674;49.152;11.918;2024-03-23T08:03:33;6.10;;;4.87;;
13218;SDS011;6674;49.152;11.918;2024-03-23T08:06:07;5.77;;;5.17;;
13218;SDS011;6674;49.152;11.918;2024-03-23T08:08:33;6.00;;;5.43;;
13218;SDS011;6674;49.152;11.918;2024-03-23T08:11:00;6.53;;;5.60;;
13218;SDS011;6674;49.152;11.918;2024-03-23T08:13:25;6.43;;;5.13;;
13218;SDS011;6674;49.152;11.918;2024-03-23T08:15:55;5.63;;;5.13;;
13218;SDS011;6674;49.152;11.918;2024-03-23T08:18:22;5.83;;;5.23;;
13218;SDS011;6674;49.152;11.918;2024-03-23T08:20:48;6.03;;;5.40;;
13218;SDS011;6674;49.152;11.918;2024-03-23T08:23:22;6.83;;;6.13;;
13218;SDS011;6674;49.152;11.918;2024-03-23T08:25:47;6.10;;;5.50;;
13218;SDS011;6674;49.152;11.918;2024-03-23T08:28:14;6.53;;;5.93;;
13218;SDS011;6674;49.152;11.918;2024-03-23T08:30:40;6.77;;;6.17;;
13218;SDS011;6674;49.152;11.918;2024-03-23T08:33:06;6.80;;;6.10;;
13218;SDS011;6674;49.152;11.918;2024-03-23T08:35:32;6.00;;;5.40;;
13218;SDS011;6674;49.152;11.918;2024-03-23T08:37:59;7.67;;;6.87;;
13218;SDS011;6674;49.152;11.918;2024-03-23T08:40:26;7.10;;;6.37;;
13218;SDS011;6674;49.152;11.918;2024-03-23T08:42:54;7.93;;;6.60;;
13218;SDS011;6674;49.152;11.918;2024-03-23T08:45:19;7.03;;;6.33;;
13218;SDS011;6674;49.152;11.918;2024-03-23T08:47:45;6.90;;;6.20;;
13218;SDS011;6674;49.152;11.918;2024-03-23T08:50:11;6.87;;;6.17;;
13218;SDS011;6674;49.152;11.918;2024-03-23T08:52:37;6.53;;;5.93;;
13218;SDS011;6674;49.152;11.918;2024-03-23T08:55:03;6.10;;;5.50;;
13218;SDS011;6674;49.152;11.918;2024-03-23T08:57:31;6.20;;;5.60;;
13218;SDS011;6674;49.152;11.918;2024-03-23T08:59:56;5.90;;;5.40;;
13218;SDS011;6674;49.152;11.918;2024-03-23T09:02:23;5.63;;;5.13;;
13218;SDS011;6674;49.152;11.918;2024-03-23T09:04:48;5.67;;;5.17;;
13218;SDS011;6674;49.152;11.918;2024-03-23T09:07:15;6.77;;;6.10;;
13218;SDS011;6674;49.152;11.918;2024-03-23T09:09:40;5.33;;;4.83;;
13218;SDS011;6674;49.152;11.918;2024-03-23T09:12:07;5.87;;;5.27;;
13218;SDS011;6674;49.152;11.918;2024-03-23T09:14:33;5.40;;;4.90;;
13218;SDS011;6674;49.152;11.918;2024-03-23T09:17:00;5.17;;;4.67;;
13218;SDS011;6674;49.152;11.918;2024-03-23T09:19:26;5.23;;;4.73;;
13218;SDS011;6674;49.152;11.918;2024-03-23T09:21:53;5.60;;;4.27;;
13218;SDS011;6674;49.152;11.918;2024-03-23T09:24:18;4.73;;;4.17;;
13218;SDS011;6674;49.152;11.918;2024-03-23T09:26:45;4.77;;;4.30;;
13218;SDS011;6674;49.152;11.918;2024-03-23T09:29:10;4.60;;;4.17;;
13218;SDS011;6674;49.152;11.918;2024-03-23T09:31:39;4.30;;;3.90;;
13218;SDS011;6674;49.152;11.918;2024-03-23T09:34:04;4.73;;;4.23;;
13218;SDS011;6674;49.152;11.918;2024-03-23T09:36:31;4.87;;;4.40;;
13218;SDS011;6674;49.152;11.918;2024-03-23T09:38:57;5.67;;;4.80;;
13218;SDS011;6674;49.152;11.918;2024-03-23T09:41:23;4.80;;;4.20;;
13218;SDS011;6674;49.152;11.918;2024-03-23T09:43:51;3.70;;;3.30;;
13218;SDS011;6674;49.152;11.918;2024-03-23T09:46:18;4.10;;;3.70;;
13218;SDS011;6674;49.152;11.918;2024-03-23T09:48:45;3.87;;;3.47;;
13218;SDS011;6674;49.152;11.918;2024-03-23T09:51:12;3.83;;;3.47;;
13218;SDS011;6674;49.152;11.918;2024-03-23T09:53:37;3.80;;;3.50;;
13218;SDS011;6674;49.152;11.918;2024-03-23T09:56:04;3.30;;;3.00;;
13218;SDS011;6674;49.152;11.918;2024-03-23T09:58:30;2.93;;;2.73;;
13218;SDS011;6674;49.152;11.918;2024-03-23T10:00:57;3.20;;;2.90;;
13218;SDS011;6674;49.152;11.918;2024-03-23T10:03:22;2.13;;;2.00;;
13218;SDS011;6674;49.152;11.918;2024-03-23T10:05:59;2.50;;;2.30;;
13218;SDS011;6674;49.152;11.918;2024-03-23T10:08:25;1.83;;;1.73;;
13218;SDS011;6674;49.152;11.918;2024-03-23T10:10:52;1.70;;;1.60;;
13218;SDS011;6674;49.152;11.918;2024-03-23T10:13:23;1.47;;;1.47;;
13218;SDS011;6674;49.152;11.918;2024-03-23T10:15:54;2.20;;;2.10;;
13218;SDS011;6674;49.152;11.918;2024-03-23T10:18:20;1.87;;;1.77;;
13218;SDS011;6674;49.152;11.918;2024-03-23T10:20:50;1.43;;;1.33;;
13218;SDS011;6674;49.152;11.918;2024-03-23T10:23:17;1.70;;;1.60;;
13218;SDS011;6674;49.152;11.918;2024-03-23T10:25:44;1.50;;;1.40;;
13218;SDS011;6674;49.152;11.918;2024-03-23T10:28:10;1.60;;;1.50;;
13218;SDS011;6674;49.152;11.918;2024-03-23T10:30:37;1.00;;;0.90;;
13218;SDS011;6674;49.152;11.918;2024-03-23T10:33:09;1.83;;;1.40;;
13218;SDS011;6674;49.152;11.918;2024-03-23T10:35:36;1.20;;;1.20;;
13218;SDS011;6674;49.152;11.918;2024-03-23T10:38:02;1.10;;;1.10;;
13218;SDS011;6674;49.152;11.918;2024-03-23T10:40:31;1.37;;;1.37;;
13218;SDS011;6674;49.152;11.918;2024-03-23T10:42:59;2.10;;;1.10;;
13218;SDS011;6674;49.152;11.918;2024-03-23T10:45:26;1.63;;;1.53;;
13218;SDS011;6674;49.152;11.918;2024-03-23T10:47:51;1.47;;;1.37;;
13218;SDS011;6674;49.152;11.918;2024-03-23T10:50:18;0.97;;;0.97;;
13218;SDS011;6674;49.152;11.918;2024-03-23T10:52:45;1.00;;;1.00;;
13218;SDS011;6674;49.152;11.918;2024-03-23T10:55:13;1.20;;;1.10;;
13218;SDS011;6674;49.152;11.918;2024-03-23T10:57:42;0.93;;;0.93;;
13218;SDS011;6674;49.152;11.918;2024-03-23T11:00:11;0.70;;;0.70;;
13218;SDS011;6674;49.152;11.918;2024-03-23T11:02:37;1.10;;;1.10;;
13218;SDS011;6674;49.152;11.918;2024-03-23T11:05:14;1.07;;;1.07;;
13218;SDS011;6674;49.152;11.918;2024-03-23T11:07:53;0.80;;;0.80;;
13218;SDS011;6674;49.152;11.918;2024-03-23T11:10:24;1.03;;;1.00;;
13218;SDS011;6674;49.152;11.918;2024-03-23T11:12:51;0.70;;;0.70;;
13218;SDS011;6674;49.152;11.918;2024-03-23T11:15:18;0.90;;;0.87;;
13218;SDS011;6674;49.152;11.918;2024-03-23T11:17:43;0.70;;;0.70;;
13218;SDS011;6674;49.152;11.918;2024-03-23T11:20:31;0.87;;;0.60;;
13218;SDS011;6674;49.152;11.918;2024-03-23T11:22:57;0.40;;;0.40;;
13218;SDS011;6674;49.152;11.918;2024-03-23T11:25:23;1.23;;;0.60;;
13218;SDS011;6674;49.152;11.918;2024-03-23T11:27:51;0.60;;;0.60;;
13218;SDS011;6674;49.152;11.918;2024-03-23T11:30:19;0.50;;;0.50;;
13218;SDS011;6674;49.152;11.918;2024-03-23T11:32:47;0.50;;;0.50;;
13218;SDS011;6674;49.152;11.918;2024-03-23T11:35:29;0.53;;;0.53;;
13218;SDS011;6674;49.152;11.918;2024-03-23T11:38:02;0.60;;;0.60;;
13218;SDS011;6674;49.152;11.918;2024-03-23T11:40:29;0.50;;;0.50;;
13218;SDS011;6674;49.152;11.918;2024-03-23T11:42:55;0.80;;;0.80;;
13218;SDS011;6674;49.152;11.918;2024-03-23T11:45:23;2.60;;;1.03;;
13218;SDS011;6674;49.152;11.918;2024-03-23T11:47:48;1.23;;;1.00;;
13218;SDS011;6674;49.152;11.918;2024-03-23T11:50:19;0.80;;;0.80;;
13218;SDS011;6674;49.152;11.918;2024-03-23T11:52:44;1.37;;;1.37;;
13218;SDS011;6674;49.152;11.918;2024-03-23T11:55:11;1.40;;;1.30;;
13218;SDS011;6674;49.152;11.918;2024-03-23T11:57:36;1.60;;;1.50;;
13218;SDS011;6674;49.152;11.918;2024-03-23T12:00:06;1.93;;;1.73;;
13218;SDS011;6674;49.152;11.918;2024-03-23T12:02:46;2.37;;;1.80;;
13218;SDS011;6674;49.152;11.918;2024-03-23T12:05:16;1.83;;;1.57;;
13218;SDS011;6674;49.152;11.918;2024-03-23T12:07:42;2.33;;;1.80;;
13218;SDS011;6674;49.152;11.918;2024-03-23T12:10:08;3.17;;;1.97;;
13218;SDS011;6674;49.152;11.918;2024-03-23T12:12:34;1.87;;;1.77;;
13218;SDS011;6674;49.152;11.918;2024-03-23T12:15:03;2.33;;;2.10;;
13218;SDS011;6674;49.152;11.918;2024-03-23T12:17:30;2.33;;;2.13;;
13218;SDS011;6674;49.152;11.918;2024-03-23T12:19:58;2.00;;;1.73;;
13218;SDS011;6674;49.152;11.918;2024-03-23T12:22:23;2.87;;;2.13;;
13218;SDS011;6674;49.152;11.918;2024-03-23T12:24:50;4.33;;;3.43;;
13218;SDS011;6674;49.152;11.918;2024-03-23T12:27:16;11.67;;;9.70;;
13218;SDS011;6674;49.152;11.918;2024-03-23T12:29:43;2.40;;;2.20;;
13218;SDS011;6674;49.152;11.918;2024-03-23T12:32:12;2.63;;;2.23;;
13218;SDS011;6674;49.152;11.918;2024-03-23T12:34:39;3.50;;;2.20;;
13218;SDS011;6674;49.152;11.918;2024-03-23T12:37:06;3.13;;;2.30;;
13218;SDS011;6674;49.152;11.918;2024-03-23T12:39:32;3.43;;;2.90;;
13218;SDS011;6674;49.152;11.918;2024-03-23T12:41:58;2.97;;;2.77;;
13218;SDS011;6674;49.152;11.918;2024-03-23T12:44:24;4.03;;;3.00;;
13218;SDS011;6674;49.152;11.918;2024-03-23T12:46:49;7.50;;;5.37;;
13218;SDS011;6674;49.152;11.918;2024-03-23T12:49:16;3.00;;;2.23;;
13218;SDS011;6674;49.152;11.918;2024-03-23T12:51:42;4.73;;;3.40;;
13218;SDS011;6674;49.152;11.918;2024-03-23T12:54:13;5.63;;;3.00;;
13218;SDS011;6674;49.152;11.918;2024-03-23T12:56:39;3.27;;;2.60;;
13218;SDS011;6674;49.152;11.918;2024-03-23T12:59:06;3.13;;;2.50;;
13218;SDS011;6674;49.152;11.918;2024-03-23T13:01:32;2.90;;;2.40;;
13218;SDS011;6674;49.152;11.918;2024-03-23T13:03:58;3.43;;;2.30;;
13218;SDS011;6674;49.152;11.918;2024-03-23T13:06:24;3.97;;;2.30;;
13218;SDS011;6674;49.152;11.918;2024-03-23T13:08:52;3.20;;;2.17;;
13218;SDS011;6674;49.152;11.918;2024-03-23T13:11:21;2.63;;;2.43;;
13218;SDS011;6674;49.152;11.918;2024-03-23T13:13:47;4.60;;;2.47;;
13218;SDS011;6674;49.152;11.918;2024-03-23T13:16:13;2.87;;;2.40;;
13218;SDS011;6674;49.152;11.918;2024-03-23T13:18:39;3.20;;;2.23;;
13218;SDS011;6674;49.152;11.918;2024-03-23T13:21:05;2.20;;;2.00;;
13218;SDS011;6674;49.152;11.918;2024-03-23T13:23:31;4.50;;;2.70;;
13218;SDS011;6674;49.152;11.918;2024-03-23T13:25:57;2.40;;;2.20;;
13218;SDS011;6674;49.152;11.918;2024-03-23T13:28:25;2.57;;;2.00;;
13218;SDS011;6674;49.152;11.918;2024-03-23T13:30:51;2.40;;;2.00;;
13218;SDS011;6674;49.152;11.918;2024-03-23T13:33:18;3.90;;;2.53;;
13218;SDS011;6674;49.152;11.918;2024-03-23T13:35:48;2.60;;;2.07;;
13218;SDS011;6674;49.152;11.918;2024-03-23T13:38:15;4.43;;;2.43;;
13218;SDS011;6674;49.152;11.918;2024-03-23T13:40:48;2.30;;;2.10;;
13218;SDS011;6674;49.152;11.918;2024-03-23T13:43:14;3.17;;;2.03;;
13218;SDS011;6674;49.152;11.918;2024-03-23T13:45:41;3.33;;;2.30;;
13218;SDS011;6674;49.152;11.918;2024-03-23T13:48:09;2.27;;;2.07;;
13218;SDS011;6674;49.152;11.918;2024-03-23T13:50:34;3.23;;;2.70;;
13218;SDS011;6674;49.152;11.918;2024-03-23T13:53:01;2.33;;;2.07;;
13218;SDS011;6674;49.152;11.918;2024-03-23T13:55:26;4.47;;;2.73;;
13218;SDS011;6674;49.152;11.918;2024-03-23T13:57:53;3.07;;;2.30;;
13218;SDS011;6674;49.152;11.918;2024-03-23T14:00:18;2.53;;;2.30;;
13218;SDS011;6674;49.152;11.918;2024-03-23T14:02:46;4.60;;;2.50;;
13218;SDS011;6674;49.152;11.918;2024-03-23T14:05:12;2.83;;;2.50;;
13218;SDS011;6674;49.152;11.918;2024-03-23T14:07:39;3.00;;;2.50;;
13218;SDS011;6674;49.152;11.918;2024-03-23T14:10:04;4.27;;;2.90;;
13218;SDS011;6674;49.152;11.918;2024-03-23T14:12:31;3.00;;;2.67;;
13218;SDS011;6674;49.152;11.918;2024-03-23T14:14:58;3.77;;;2.33;;
13218;SDS011;6674;49.152;11.918;2024-03-23T14:17:23;3.70;;;2.57;;
13218;SDS011;6674;49.152;11.918;2024-03-23T14:19:52;5.13;;;2.70;;
13218;SDS011;6674;49.152;11.918;2024-03-23T14:22:17;5.97;;;2.90;;
13218;SDS011;6674;49.152;11.918;2024-03-23T14:24:47;4.03;;;2.70;;
13218;SDS011;6674;49.152;11.918;2024-03-23T14:27:13;3.90;;;2.67;;
13218;SDS011;6674;49.152;11.918;2024-03-23T14:29:39;4.60;;;2.67;;
13218;SDS011;6674;49.152;11.918;2024-03-23T14:32:05;5.23;;;3.20;;
13218;SDS011;6674;49.152;11.918;2024-03-23T14:34:31;4.80;;;2.87;;
13218;SDS011;6674;49.152;11.918;2024-03-23T14:36:58;10.27;;;7.27;;
13218;SDS011;6674;49.152;11.918;2024-03-23T14:39:26;2.97;;;2.67;;
13218;SDS011;6674;49.152;11.918;2024-03-23T14:41:52;3.67;;;2.60;;
13218;SDS011;6674;49.152;11.918;2024-03-23T14:44:18;4.07;;;3.00;;
13218;SDS011;6674;49.152;11.918;2024-03-23T14:46:44;4.57;;;2.87;;
13218;SDS011;6674;49.152;11.918;2024-03-23T14:49:14;3.57;;;2.93;;
13218;SDS011;6674;49.152;11.918;2024-03-23T14:51:41;4.00;;;2.80;;
13218;SDS011;6674;49.152;11.918;2024-03-23T14:54:09;4.47;;;3.30;;
13218;SDS011;6674;49.152;11.918;2024-03-23T14:56:35;4.57;;;3.20;;
13218;SDS011;6674;49.152;11.918;2024-03-23T14:59:02;5.10;;;2.80;;
13218;SDS011;6674;49.152;11.918;2024-03-23T15:01:28;3.57;;;2.93;;
13218;SDS011;6674;49.152;11.918;2024-03-23T15:03:54;4.27;;;2.70;;
13218;SDS011;6674;49.152;11.918;2024-03-23T15:06:20;4.87;;;2.97;;
13218;SDS011;6674;49.152;11.918;2024-03-23T15:08:46;4.90;;;2.90;;
13218;SDS011;6674;49.152;11.918;2024-03-23T15:11:13;3.57;;;2.47;;
13218;SDS011;6674;49.152;11.918;2024-03-23T15:13:39;3.93;;;2.67;;
13218;SDS011;6674;49.152;11.918;2024-03-23T15:16:05;4.63;;;2.80;;
13218;SDS011;6674;49.152;11.918;2024-03-23T15:18:32;3.27;;;2.30;;
13218;SDS011;6674;49.152;11.918;2024-03-23T15:20:58;2.27;;;1.87;;
13218;SDS011;6674;49.152;11.918;2024-03-23T15:23:27;3.10;;;2.07;;
13218;SDS011;6674;49.152;11.918;2024-03-23T15:25:55;4.73;;;2.43;;
13218;SDS011;6674;49.152;11.918;2024-03-23T15:28:23;3.53;;;2.30;;
13218;SDS011;6674;49.152;11.918;2024-03-23T15:30:48;4.30;;;2.37;;
13218;SDS011;6674;49.152;11.918;2024-03-23T15:33:14;3.20;;;2.07;;